Varrelbusch Airport

EDWU · Niedersachsen, Deutschland

METAR-Geschichte EDWU · Varrelbusch Airport

Unten siehst du die METARs der letzten paar Tage. Wähle ein Jahr, um ältere METARs ab dem Jahr 2007 zu durchsuchen.

28. Februar 2024

Uhrzeit Code Wetter Temp. Sichtweite Wolkendecke Wind METAR/SPECI
03:20
I
-1 °C 4,1 km 1.800 ft 170° 170° 2 kt METAR EDDW 280220Z AUTO 17002KT 4100 BR BKN018 M01/M02 Q1019
02:50
M
0 °C 7 km - 130° 130° 1 kt METAR EDDW 280150Z AUTO 13001KT 7000 NCD M00/M01 Q1019
02:20
M
0 °C 5 km 1.700 ft Var Var 2 kt METAR EDDW 280120Z AUTO VRB02KT 5000 BR BKN017 00/M01 Q1019
01:50
M
0 °C 5 km 1.900 ft 150° 150° 3 kt METAR EDDW 280050Z AUTO 15003KT 5000 BR BKN019 00/M01 Q1019
01:20
M
0 °C 7 km 1.900 ft 280° 280° 1 kt METAR EDDW 280020Z AUTO 28001KT 7000 BKN019 00/M01 Q1019
00:50
V
2 °C 10 km+ - 300° 300° 1 kt METAR EDDW 272350Z AUTO 30001KT CAVOK 02/M00 Q1019
00:20
V
2 °C 10 km+ - 100° 100° 2 kt METAR EDDW 272320Z AUTO 10002KT 9999 FEW017 02/00 Q1019

27. Februar 2024

Uhrzeit Code Wetter Temp. Sichtweite Wolkendecke Wind METAR/SPECI
23:50
M
3 °C 10 km+ 1.700 ft Var Var 2 kt METAR EDDW 272250Z AUTO VRB02KT 9999 BKN017 03/00 Q1019
23:20
M
3 °C 10 km+ 1.700 ft 310° 310° 2 kt METAR EDDW 272220Z AUTO 31002KT 9999 OVC017 03/00 Q1020
22:50
M
3 °C 10 km+ 1.600 ft Var Var 1 kt METAR EDDW 272150Z AUTO VRB01KT 9999 OVC016 03/01 Q1020
22:20
M
3 °C 10 km+ 1.500 ft 180° 180° 3 kt METAR EDDW 272120Z AUTO 18003KT 140V220 9999 OVC015 03/00 Q1020
21:50
M
3 °C 10 km+ 1.400 ft Var Var 1 kt METAR EDDW 272050Z AUTO VRB01KT 9999 OVC014 03/00 Q1019 NOSIG
21:20
M
3 °C 10 km+ 1.400 ft 150° 150° 3 kt METAR EDDW 272020Z AUTO 15003KT 110V230 9999 BKN014 03/00 Q1019 NOSIG
20:50
M
3 °C 10 km+ 1.300 ft 110° 110° 3 kt METAR EDDW 271950Z AUTO 11003KT 070V170 9999 OVC013 03/00 Q1019 TEMPO BKN009
20:20
M
3 °C 10 km+ 1.300 ft 110° 110° 3 kt METAR EDDW 271920Z AUTO 11003KT 9999 OVC013 03/00 Q1019 TEMPO BKN009
19:50
M
4 °C 10 km+ 1.200 ft Var Var 2 kt METAR EDDW 271850Z AUTO VRB02KT 9999 OVC012 04/01 Q1019 TEMPO BKN009
19:20
M
4 °C 10 km+ 1.300 ft Var Var 2 kt METAR EDDW 271820Z AUTO VRB02KT 9999 OVC013 04/01 Q1019 TEMPO BKN009
18:50
M
4 °C 10 km+ 1.400 ft 300° 300° 5 kt METAR EDDW 271750Z AUTO 30005KT 250V340 9999 OVC014 04/00 Q1019 TEMPO BKN009
18:20
M
4 °C 10 km+ 1.500 ft 320° 320° 5 kt METAR EDDW 271720Z AUTO 32005KT 290V350 9999 OVC015 04/01 Q1019 TEMPO BKN009
17:50
M
4 °C 10 km+ 1.500 ft 060° 060° 4 kt METAR EDDW 271650Z AUTO 06004KT 020V110 9999 OVC015 04/01 Q1018 TEMPO BKN014
17:20
M
5 °C 10 km+ 1.600 ft 350° 350° 5 kt METAR EDDW 271620Z AUTO 35005KT 320V070 9999 OVC016 05/01 Q1018 NOSIG
16:50
M
5 °C 10 km+ 1.600 ft 010° 010° 5 kt METAR EDDW 271550Z AUTO 01005KT 340V050 9999 OVC016 05/01 Q1018 NOSIG
16:20
M
5 °C 10 km+ 1.600 ft 340° 340° 4 kt METAR EDDW 271520Z AUTO 34004KT 310V030 9999 OVC016 05/02 Q1018 NOSIG
15:50
M
5 °C 10 km+ 1.600 ft 330° 330° 4 kt METAR EDDW 271450Z AUTO 33004KT 9999 OVC016 05/02 Q1018 NOSIG
15:20
M
5 °C 10 km+ 1.500 ft 340° 340° 4 kt METAR EDDW 271420Z AUTO 34004KT 9999 OVC015 05/02 Q1018 NOSIG
14:50
M
6 °C 10 km+ 1.500 ft 300° 300° 4 kt METAR EDDW 271350Z AUTO 30004KT 270V330 9999 OVC015 06/02 Q1018 TEMPO BKN014
14:20
M
5 °C 10 km+ 1.500 ft 310° 310° 6 kt METAR EDDW 271320Z AUTO 31006KT 9999 BKN015 05/02 Q1018 TEMPO BKN014
13:50
M
5 °C 10 km+ 1.500 ft Var Var 2 kt METAR EDDW 271250Z AUTO VRB02KT 9999 BKN015 05/01 Q1018 TEMPO BKN014
13:20
M
5 °C 10 km+ 1.300 ft Var Var 3 kt METAR EDDW 271220Z AUTO VRB03KT 9999 OVC013 05/02 Q1019 BECMG OVC015
12:50
M
5 °C 10 km+ 1.200 ft 030° 030° 4 kt METAR EDDW 271150Z AUTO 03004KT 320V100 9999 OVC012 05/01 Q1019 TEMPO OVC015
12:20
M
5 °C 10 km+ 1.100 ft 350° 350° 4 kt METAR EDDW 271120Z AUTO 35004KT 310V050 9999 OVC011 05/02 Q1019 TEMPO OVC015
11:50
M
4 °C 10 km+ 1.200 ft 340° 340° 4 kt METAR EDDW 271050Z AUTO 34004KT 300V010 9999 OVC012 04/02 Q1019 TEMPO OVC015
11:20
M
4 °C 10 km+ 1.200 ft 010° 010° 5 kt METAR EDDW 271020Z AUTO 01005KT 320V050 9999 OVC012 04/01 Q1019 TEMPO OVC015
10:50
M
4 °C 10 km+ 1.100 ft 360° 360° 4 kt METAR EDDW 270950Z AUTO 36004KT 300V030 9999 OVC011 04/02 Q1019 BECMG BKN015
10:20
M
4 °C 10 km+ 1.000 ft 030° 030° 5 kt METAR EDDW 270920Z AUTO 03005KT 340V090 9999 OVC010 04/01 Q1019 BECMG BKN015
09:50
I
4 °C 10 km+ 900 ft 030° 030° 5 kt METAR EDDW 270850Z AUTO 03005KT 350V070 9999 OVC009 04/02 Q1019 BECMG BKN010
09:20
I
3 °C 10 km+ 800 ft 080° 080° 5 kt METAR EDDW 270820Z AUTO 08005KT 040V110 9999 OVC008 03/01 Q1019 BECMG BKN010
08:50
I
3 °C 10 km+ 800 ft 020° 020° 6 kt METAR EDDW 270750Z AUTO 02006KT 350V060 9999 OVC008 03/01 Q1019 BECMG BKN010
08:20
I
3 °C 10 km+ 700 ft 040° 040° 6 kt METAR EDDW 270720Z AUTO 04006KT 010V070 9999 OVC007 03/01 Q1019 TEMPO BKN004
07:50
I
3 °C 10 km+ 700 ft 060° 060° 5 kt METAR EDDW 270650Z AUTO 06005KT 020V090 9999 OVC007 03/02 Q1018 TEMPO BKN004
07:20
I
3 °C 10 km+ 800 ft 040° 040° 6 kt METAR EDDW 270620Z AUTO 04006KT 360V060 9999 OVC008 03/02 Q1018 TEMPO OVC004
06:50
I
3 °C 10 km+ 700 ft 050° 050° 8 kt METAR EDDW 270550Z AUTO 05008KT 020V080 9999 OVC007 03/01 Q1017 TEMPO BKN004
06:20
I
3 °C 10 km+ 700 ft 040° 040° 6 kt METAR EDDW 270520Z AUTO 04006KT 360V060 9999 OVC007 03/02 Q1017 TEMPO BKN004
05:50
I
3 °C 10 km+ 600 ft 040° 040° 6 kt METAR EDDW 270450Z AUTO 04006KT 010V070 9999 OVC006 03/02 Q1017 TEMPO BKN004
05:20
I
3 °C 10 km+ 600 ft 050° 050° 6 kt METAR EDDW 270420Z AUTO 05006KT 9999 OVC006 03/02 Q1017 TEMPO BKN004
04:50
I
3 °C 9 km 500 ft 040° 040° 7 kt METAR EDDW 270350Z AUTO 04007KT 9000 OVC005 03/02 Q1017 TEMPO BKN004
04:20
L
3 °C 7 km 400 ft 040° 040° 7 kt METAR EDDW 270320Z AUTO 04007KT 7000 OVC004 03/02 Q1017
03:50
L
2 °C 6 km 300 ft 030° 030° 7 kt METAR EDDW 270250Z AUTO 03007KT 350V060 6000 OVC003 02/02 Q1017
03:20
L
2 °C 5 km 200 ft 020° 020° 9 kt METAR EDDW 270220Z AUTO 02009KT 5000 BR OVC002 02/02 Q1017
02:50
L
2 °C 5 km 200 ft 040° 040° 8 kt METAR EDDW 270150Z AUTO 04008KT 5000 BR OVC002 02/02 Q1016
02:20
L
2 °C 5 km 200 ft 050° 050° 7 kt METAR EDDW 270120Z AUTO 05007KT 5000 BR OVC002 02/02 Q1016
01:50
L
2 °C 5 km 300 ft 040° 040° 10 kt METAR EDDW 270050Z AUTO 04010KT 5000 BR OVC003 02/02 Q1016
01:20
L
2 °C 5 km 300 ft 030° 030° 9 kt METAR EDDW 270020Z AUTO 03009KT 5000 BR BKN003 02/01 Q1016
00:50
V
2 °C 9 km - 030° 030° 7 kt METAR EDDW 262350Z AUTO 03007KT 9000 NCD 02/01 Q1016
00:20
V
3 °C 10 km+ - 020° 020° 8 kt METAR EDDW 262320Z AUTO 02008KT CAVOK 03/01 Q1015

26. Februar 2024

Uhrzeit Code Wetter Temp. Sichtweite Wolkendecke Wind METAR/SPECI
23:50
V
3 °C 10 km+ - 010° 010° 7 kt METAR EDDW 262250Z AUTO 01007KT CAVOK 03/01 Q1015
23:20
V
3 °C 10 km+ - 020° 020° 8 kt METAR EDDW 262220Z AUTO 02008KT CAVOK 03/02 Q1015
22:50
V
3 °C 10 km+ - 030° 030° 8 kt METAR EDDW 262150Z AUTO 03008KT CAVOK 03/02 Q1015
22:20
V
4 °C 10 km+ - 040° 040° 10 kt METAR EDDW 262120Z AUTO 04010KT CAVOK 04/02 Q1014
21:50
V
4 °C 10 km+ - 030° 030° 10 kt METAR EDDW 262050Z AUTO 03010KT CAVOK 04/02 Q1014 TEMPO BKN007
21:20
V
4 °C 10 km+ - 030° 030° 12 kt METAR EDDW 262020Z AUTO 03012KT CAVOK 04/03 Q1013 BECMG 03007KT
20:50
V
5 °C 10 km+ - 030° 030° 13 kt METAR EDDW 261950Z AUTO 03013KT CAVOK 05/03 Q1013 BECMG 03008KT
20:20
V
5 °C 10 km+ - 040° 040° 13 kt METAR EDDW 261920Z AUTO 04013KT CAVOK 05/03 Q1013 BECMG 03008KT
19:50
V
5 °C 10 km+ - 030° 030° 14 kt METAR EDDW 261850Z AUTO 03014KT 9999 FEW009 05/03 Q1012 TEMPO BKN008
19:20
V
5 °C 10 km+ - 030° 030° 13 kt METAR EDDW 261820Z AUTO 03013KT 9999 SCT008 05/03 Q1012 TEMPO BKN008
18:50
V
5 °C 10 km+ - 030° 030° 11 kt METAR EDDW 261750Z AUTO 03011KT 9999 FEW008 05/03 Q1011 NOSIG
18:20
V
5 °C 10 km+ - 030° 030° 14 kt METAR EDDW 261720Z AUTO 03014KT 9999 FEW009 05/03 Q1011 NOSIG
17:50
V
5 °C 10 km+ - 030° 030° 15 kt METAR EDDW 261650Z AUTO 03015KT CAVOK 05/03 Q1010 NOSIG
17:20
V
6 °C 10 km+ - 030° 030° 12 kt METAR EDDW 261620Z AUTO 03012KT CAVOK 06/03 Q1010 NOSIG
16:50
V
6 °C 10 km+ - 030° 030° 12 kt METAR EDDW 261550Z AUTO 03012KT CAVOK 06/03 Q1010 NOSIG
16:20
V
7 °C 10 km+ - 030° 030° 14 kt METAR EDDW 261520Z AUTO 03014KT 9999 FEW012 07/04 Q1009 NOSIG
15:50
V
7 °C 10 km+ - 030° 030° 12 kt METAR EDDW 261450Z AUTO 03012KT CAVOK 07/04 Q1009 NOSIG
15:20
V
7 °C 10 km+ - 040° 040° 12 kt METAR EDDW 261420Z AUTO 04012KT CAVOK 07/04 Q1008 NOSIG
14:50
V
7 °C 10 km+ - 030° 030° 14 kt METAR EDDW 261350Z AUTO 03014KT 360V060 CAVOK 07/04 Q1008 NOSIG
14:20
V
7 °C 10 km+ - 030° 030° 11 kt METAR EDDW 261320Z AUTO 03011KT CAVOK 07/04 Q1008 NOSIG
13:50
V
7 °C 10 km+ - 020° 020° 11 kt METAR EDDW 261250Z AUTO 02011KT 350V060 CAVOK 07/04 Q1008 NOSIG
13:20
V
7 °C 10 km+ - 030° 030° 9 kt METAR EDDW 261220Z AUTO 03009KT CAVOK 07/04 Q1008 NOSIG
12:50
V
7 °C 10 km+ - 030° 030° 9 kt METAR EDDW 261150Z AUTO 03009KT CAVOK 07/04 Q1007 NOSIG
12:20
V
7 °C 10 km+ - 050° 050° 9 kt METAR EDDW 261120Z AUTO 05009KT 010V070 CAVOK 07/03 Q1007 NOSIG
11:50
V
6 °C 10 km+ - 050° 050° 9 kt METAR EDDW 261050Z AUTO 05009KT CAVOK 06/03 Q1007 NOSIG
11:20
V
5 °C 10 km+ - 040° 040° 8 kt METAR EDDW 261020Z AUTO 04008KT 010V070 CAVOK 05/03 Q1007 NOSIG
10:50
V
4 °C 10 km+ - 040° 040° 10 kt METAR EDDW 260950Z AUTO 04010KT CAVOK 04/03 Q1007 NOSIG
10:20
V
4 °C 9 km - 040° 040° 9 kt METAR EDDW 260920Z AUTO 04009KT 9000 FEW005 04/03 Q1006 TEMPO BKN004
09:50
M
3 °C 7 km - 040° 040° 10 kt METAR EDDW 260850Z AUTO 04010KT 7000 FEW005 03/03 Q1006 TEMPO BKN004
09:20
L
3 °C 5 km 300 ft 040° 040° 9 kt METAR EDDW 260820Z AUTO 04009KT 5000 BR BKN003 03/02 Q1006 TEMPO 3000 BCFG SCT003
08:50
L
2 °C 5 km 300 ft 040° 040° 8 kt METAR EDDW 260750Z AUTO 04008KT 5000 BR BKN003 02/02 Q1006 TEMPO 3000 BCFG SCT003
08:20
L
2 °C 5 km 300 ft 040° 040° 8 kt METAR EDDW 260720Z AUTO 04008KT 5000 BR BKN003 02/02 Q1006 TEMPO 2500 BCFG SCT003
07:50
M
2 °C 6 km - 040° 040° 8 kt METAR EDDW 260650Z AUTO 04008KT 6000 FEW003 02/01 Q1005 TEMPO 2500 BCFG BKN003
07:20
V
2 °C 8 km - 030° 030° 9 kt METAR EDDW 260620Z AUTO 03009KT 8000 NSC 02/01 Q1005 NOSIG
06:50
V
2 °C 10 km+ - 030° 030° 9 kt METAR EDDW 260550Z AUTO 03009KT CAVOK 02/01 Q1004 NOSIG
06:20
V
2 °C 10 km+ - 050° 050° 5 kt METAR EDDW 260520Z AUTO 05005KT CAVOK 02/01 Q1004 NOSIG
05:50
V
2 °C 10 km+ - 050° 050° 5 kt METAR EDDW 260450Z AUTO 05005KT CAVOK 02/01 Q1004 NOSIG
05:20
V
2 °C 10 km+ - 050° 050° 4 kt METAR EDDW 260420Z AUTO 05004KT CAVOK 02/01 Q1004 NOSIG
04:50
V
2 °C 10 km+ - 040° 040° 4 kt METAR EDDW 260350Z AUTO 04004KT CAVOK 02/01 Q1004 NOSIG
04:20
V
1 °C 10 km+ - 060° 060° 3 kt METAR EDDW 260320Z AUTO 06003KT CAVOK 01/01 Q1003
03:50
V
2 °C 10 km+ - 040° 040° 4 kt METAR EDDW 260250Z AUTO 04004KT CAVOK 02/01 Q1003
03:20
V
2 °C 10 km+ - 070° 070° 5 kt METAR EDDW 260220Z AUTO 07005KT CAVOK 02/01 Q1003
02:50
V
2 °C 10 km+ - 050° 050° 5 kt METAR EDDW 260150Z AUTO 05005KT CAVOK 02/01 Q1003
02:20
V
2 °C 10 km+ - 050° 050° 5 kt METAR EDDW 260120Z AUTO 05005KT CAVOK 02/02 Q1003
01:50
V
1 °C 10 km+ - 060° 060° 4 kt METAR EDDW 260050Z AUTO 06004KT CAVOK 01/01 Q1003
01:20
V
3 °C 10 km+ - 060° 060° 4 kt METAR EDDW 260020Z AUTO 06004KT CAVOK 03/02 Q1003
00:50
V
3 °C 8 km - 070° 070° 3 kt METAR EDDW 252350Z AUTO 07003KT 8000 NSC 03/02 Q1003
00:20
V
2 °C 10 km+ - 060° 060° 4 kt METAR EDDW 252320Z AUTO 06004KT CAVOK 02/02 Q1003

25. Februar 2024

Uhrzeit Code Wetter Temp. Sichtweite Wolkendecke Wind METAR/SPECI
23:50
V
4 °C 10 km+ - 050° 050° 3 kt METAR EDDW 252250Z AUTO 05003KT 9999 FEW045 04/03 Q1002
23:20
V
3 °C 10 km+ 4.200 ft 070° 070° 4 kt METAR EDDW 252220Z AUTO 07004KT 9999 BKN042 03/02 Q1002
22:50
V
4 °C 10 km+ - 100° 100° 4 kt METAR EDDW 252150Z AUTO 10004KT 060V120 9999 FEW043 04/03 Q1002
22:20
V
5 °C 10 km+ - 050° 050° 2 kt METAR EDDW 252120Z AUTO 05002KT CAVOK 05/03 Q1002
21:50
V
5 °C 10 km+ - Var Var 2 kt METAR EDDW 252050Z AUTO VRB02KT CAVOK 05/03 Q1002 TEMPO 2500 BCFG
21:20
V
5 °C 10 km+ - Var Var 1 kt METAR EDDW 252020Z AUTO VRB01KT CAVOK 05/03 Q1002 NOSIG
20:50
V
6 °C 10 km+ - 080° 080° 3 kt METAR EDDW 251950Z AUTO 08003KT CAVOK 06/03 Q1002 NOSIG
20:20
V
6 °C 10 km+ - 080° 080° 3 kt METAR EDDW 251920Z AUTO 08003KT 9999 FEW030 06/03 Q1002 NOSIG
19:50
V
6 °C 10 km+ - 110° 110° 2 kt METAR EDDW 251850Z AUTO 11002KT 9999 FEW031 06/04 Q1002 NOSIG
19:20
V
6 °C 10 km+ - 130° 130° 4 kt METAR EDDW 251820Z AUTO 13004KT 9999 VCSH FEW018 FEW///CB 06/04 Q1002 BECMG NSC
18:50
V
6 °C 10 km+ - 120° 120° 3 kt METAR EDDW 251750Z AUTO 12003KT 9999 -SHRA FEW020 FEW///CB 06/04 Q1002 BECMG NSC
18:20
V
6 °C 10 km+ - Var Var 1 kt METAR EDDW 251720Z AUTO VRB01KT 9999 -SHRA FEW019 SCT028 FEW///CB 06/04 Q1002 BECMG NSC
17:50
V
6 °C 10 km+ 4.100 ft 070° 070° 2 kt METAR EDDW 251650Z AUTO 07002KT 9999 -SHRA FEW019 SCT033 BKN041 FEW///CB 06/04 Q1002 BECMG NSC
17:20
V
7 °C 10 km+ - 360° 360° 0 kt METAR EDDW 251620Z AUTO 00000KT 9999 FEW031 07/04 Q1001 TEMPO FEW025TCU
16:50
V
7 °C 10 km+ - Var Var 1 kt METAR EDDW 251550Z AUTO VRB01KT 9999 SCT036 07/04 Q1001 TEMPO FEW025TCU
16:20
V
6 °C 10 km+ 4.300 ft 290° 290° 6 kt METAR EDDW 251520Z AUTO 29006KT 9999 -SHRA SCT022 SCT035 BKN043 FEW///TCU 06/04 Q1002 TEMPO NSC
15:50
V
8 °C 10 km+ - 210° 210° 9 kt METAR EDDW 251450Z AUTO 21009KT 9999 -SHRA SCT046 FEW///TCU 08/03 Q1001 TEMPO NSC
15:20
V
8 °C 10 km+ - 190° 190° 12 kt METAR EDDW 251420Z AUTO 19012KT 160V220 9999 -SHRA FEW026 FEW///CB 08/03 Q1001 TEMPO NSC
14:50
V
8 °C 10 km+ 3.800 ft 210° 210° 11 kt METAR EDDW 251350Z AUTO 21011KT 160V230 9999 VCSH SCT024 BKN038 BKN046 FEW///TCU 08/03 Q1001 TEMPO SHRA BKN020CB
14:20
V
8 °C 10 km+ 3.300 ft 240° 240° 7 kt METAR EDDW 251320Z AUTO 24007KT 9999 SCT023 BKN033 BKN040 08/04 Q1001 TEMPO SHRA BKN014CB
13:50
M
8 °C 10 km+ 2.700 ft 220° 220° 9 kt METAR EDDW 251250Z AUTO 22009KT 9999 SCT019 BKN027 BKN038 08/04 Q1001 NOSIG
13:20
M
7 °C 10 km+ 1.800 ft 210° 210° 9 kt METAR EDDW 251220Z AUTO 21009KT 9999 BKN018 BKN039 07/04 Q1001 NOSIG
12:50
M
7 °C 10 km+ 2.200 ft 210° 210° 10 kt METAR EDDW 251150Z AUTO 21010KT 9999 VCSH BKN022 BKN033 OVC042 FEW///TCU 07/03 Q1002 BECMG NSC
12:20
M
6 °C 10 km+ 1.900 ft 200° 200° 14 kt METAR EDDW 251120Z AUTO 20014KT 9999 -SHRA BKN019 OVC032 FEW///CB 06/03 Q1002 NOSIG
11:50
V
7 °C 10 km+ 3.100 ft 190° 190° 13 kt METAR EDDW 251050Z AUTO 19013KT 9999 SCT019 BKN031 07/03 Q1002 NOSIG
11:20
V
7 °C 10 km+ 3.800 ft 190° 190° 11 kt METAR EDDW 251020Z AUTO 19011KT 9999 FEW019 BKN038 07/03 Q1002 NOSIG
10:50
M
6 °C 10 km+ 2.600 ft 190° 190° 11 kt METAR EDDW 250950Z AUTO 19011KT 9999 FEW018 BKN026 BKN034 06/03 Q1002 NOSIG
10:20
V
6 °C 10 km+ 3.900 ft 200° 200° 12 kt METAR EDDW 250920Z AUTO 20012KT 9999 SCT020 BKN039 OVC047 06/03 Q1002 NOSIG
09:50
V
6 °C 10 km+ - 190° 190° 9 kt METAR EDDW 250850Z AUTO 19009KT 9999 FEW023 06/03 Q1002 NOSIG
09:20
V
5 °C 10 km+ - 170° 170° 7 kt METAR EDDW 250820Z AUTO 17007KT 9999 FEW023 05/03 Q1002 NOSIG
08:50
V
5 °C 10 km+ - 160° 160° 7 kt METAR EDDW 250750Z AUTO 16007KT CAVOK 05/03 Q1002 NOSIG
08:20
V
4 °C 10 km+ - 160° 160° 6 kt METAR EDDW 250720Z AUTO 16006KT 9999 SCT032 04/03 Q1001 NOSIG
07:50
V
4 °C 10 km+ 3.900 ft 150° 150° 8 kt METAR EDDW 250650Z AUTO 15008KT 9999 -DZ SCT027 BKN039 04/02 Q1001 NOSIG
07:20
M
4 °C 10 km+ 2.900 ft 140° 140° 7 kt METAR EDDW 250620Z AUTO 14007KT 9999 FEW022 BKN029 OVC037 04/02 Q1001 NOSIG
06:50
M
4 °C 10 km+ 2.700 ft 170° 170° 8 kt METAR EDDW 250550Z AUTO 17008KT 9999 -RA FEW021 BKN027 OVC033 04/02 Q1001 RERA NOSIG